Time;durP1;ratioP1;P1;durP2;ratioP2;P2;SDS_P1;SDS_P2;PMS_P1;PMS_P2;Temp;Humidity;BMP_temperature;BMP_pressure;BME280_temperature;BME280_humidity;BME280_pressure;Samples;Min_cycle;Max_cycle;Signal;HPM_P1;HPM_P2
2022/03/05 00:00:37;;;;;;;20.25;16.13;;;;;;;0.61;68.53;95524.16;6299478;22;20086;-60
2022/03/05 00:03:03;;;;;;;21.83;17.27;;;;;;;0.65;67.83;95523.06;6299742;22;20026;-60
2022/03/05 00:05:29;;;;;;;24.40;18.05;;;;;;;0.68;66.79;95520.31;6299660;22;20006;-61
2022/03/05 00:07:54;;;;;;;28.25;19.63;;;;;;;0.59;67.51;95523.41;6299299;22;20407;-60
2022/03/05 00:10:21;;;;;;;29.95;21.13;;;;;;;0.50;67.99;95520.41;6299935;22;20016;-60
2022/03/05 00:12:47;;;;;;;27.10;19.20;;;;;;;0.52;67.90;95526.31;6299692;22;20007;-60
2022/03/05 00:15:13;;;;;;;31.25;20.92;;;;;;;0.62;66.88;95523.25;6299693;22;20030;-60
2022/03/05 00:17:38;;;;;;;32.50;22.55;;;;;;;0.59;68.16;95531.19;6299067;22;20000;-60
2022/03/05 00:20:05;;;;;;;41.78;28.63;;;;;;;0.49;67.96;95521.31;6299528;22;20003;-60
2022/03/05 00:22:30;;;;;;;41.22;27.25;;;;;;;0.42;68.26;95525.19;6299488;22;20014;-60
2022/03/05 00:24:56;;;;;;;36.75;25.70;;;;;;;0.36;68.22;95525.50;6299651;22;19999;-60
2022/03/05 00:27:21;;;;;;;49.22;30.15;;;;;;;0.33;68.57;95538.59;6299631;22;20458;-60
2022/03/05 00:29:47;;;;;;;48.42;29.65;;;;;;;0.27;68.14;95535.44;6299508;22;20014;-60
2022/03/05 00:32:12;;;;;;;46.50;28.30;;;;;;;0.25;68.82;95531.28;6299307;22;20052;-61
2022/03/05 00:34:38;;;;;;;38.75;24.75;;;;;;;0.27;68.93;95535.44;6299172;22;20000;-60
2022/03/05 00:37:05;;;;;;;38.35;26.23;;;;;;;0.26;68.26;95538.94;6300388;22;20051;-61
2022/03/05 00:39:31;;;;;;;34.85;24.08;;;;;;;0.20;69.26;95539.28;6301062;22;20011;-60
2022/03/05 00:41:57;;;;;;;35.78;22.92;;;;;;;0.16;68.95;95535.19;6300630;22;20010;-60
2022/03/05 00:44:22;;;;;;;34.20;21.45;;;;;;;0.15;68.94;95533.53;6300782;22;19999;-60
2022/03/05 00:46:48;;;;;;;32.38;20.38;;;;;;;0.07;68.98;95533.94;6300903;22;20010;-60
2022/03/05 00:49:13;;;;;;;33.20;20.77;;;;;;;0.08;69.15;95537.34;6300844;22;20059;-60
2022/03/05 00:51:38;;;;;;;29.40;19.95;;;;;;;0.08;69.36;95529.56;6300734;22;20007;-60
2022/03/05 00:54:04;;;;;;;29.38;18.40;;;;;;;-0.02;69.17;95544.75;6301052;22;20007;-60
2022/03/05 00:56:29;;;;;;;28.60;18.33;;;;;;;-0.06;69.17;95536.34;6300962;22;20449;-60
2022/03/05 00:58:54;;;;;;;28.40;17.73;;;;;;;-0.07;69.12;95534.66;6300937;22;20015;-60
2022/03/05 01:01:20;;;;;;;31.70;18.27;;;;;;;-0.09;70.43;95539.09;6300710;22;20087;-61
2022/03/05 01:03:45;;;;;;;30.15;19.00;;;;;;;-0.17;71.30;95541.22;6300694;22;20328;-60
2022/03/05 01:06:11;;;;;;;28.50;17.95;;;;;;;-0.22;70.45;95533.72;6301024;22;20008;-61
2022/03/05 01:08:36;;;;;;;32.42;19.38;;;;;;;-0.31;72.05;95540.19;6300815;22;20410;-60
2022/03/05 01:11:02;;;;;;;29.42;18.08;;;;;;;-0.40;70.73;95538.06;6300447;22;20462;-60
2022/03/05 01:13:28;;;;;;;37.08;19.65;;;;;;;-0.37;71.02;95537.91;6300925;22;20007;-60
2022/03/05 01:15:53;;;;;;;30.38;17.67;;;;;;;-0.33;70.95;95533.41;6300718;22;20063;-60
2022/03/05 01:18:19;;;;;;;31.88;19.30;;;;;;;-0.45;71.05;95529.72;6300170;22;19999;-60
2022/03/05 01:20:44;;;;;;;35.33;18.30;;;;;;;-0.50;70.54;95531.72;6273099;22;20026;-60
2022/03/05 01:23:10;;;;;;;30.30;18.23;;;;;;;-0.50;70.47;95536.88;6300813;22;20431;-60
2022/03/05 01:25:35;;;;;;;30.60;17.52;;;;;;;-0.51;70.47;95535.22;6299941;22;20056;-60
2022/03/05 01:28:00;;;;;;;30.33;17.83;;;;;;;-0.49;70.11;95529.03;6300406;22;20395;-60
2022/03/05 01:30:26;;;;;;;31.88;18.27;;;;;;;-0.44;70.12;95534.81;6300827;22;20338;-60
2022/03/05 01:32:52;;;;;;;31.38;18.38;;;;;;;-0.49;70.07;95538.56;6300694;22;20003;-60
2022/03/05 01:35:18;;;;;;;29.50;18.63;;;;;;;-0.58;71.37;95538.09;6300576;22;20113;-60
2022/03/05 01:37:43;;;;;;;29.30;19.40;;;;;;;-0.68;70.73;95536.88;6300581;22;20457;-60
2022/03/05 01:40:09;;;;;;;20.98;16.17;;;;;;;-0.76;71.71;95539.03;6300697;22;20117;-60
2022/03/05 01:42:35;;;;;;;24.38;15.82;;;;;;;-0.82;72.00;95539.31;6300524;22;20010;-60
2022/03/05 01:45:00;;;;;;;26.75;15.25;;;;;;;-0.85;72.82;95532.56;6300239;22;20006;-61
2022/03/05 01:47:25;;;;;;;16.00;12.32;;;;;;;-0.82;70.76;95534.16;6300724;22;20021;-60
2022/03/05 01:49:51;;;;;;;14.23;12.00;;;;;;;-0.79;69.41;95532.25;6300543;22;20007;-60
2022/03/05 01:52:17;;;;;;;15.50;11.48;;;;;;;-0.81;68.29;95535.81;6300673;22;20008;-61
2022/03/05 01:54:42;;;;;;;20.50;14.57;;;;;;;-0.87;68.36;95535.22;6300568;22;20023;-60
2022/03/05 01:57:11;;;;;;;20.35;14.88;;;;;;;-0.90;68.82;95532.78;6300331;22;20034;-60
2022/03/05 01:59:36;;;;;;;20.02;14.45;;;;;;;-1.02;70.77;95531.63;6300648;22;20003;-60
2022/03/05 02:02:02;;;;;;;16.45;13.35;;;;;;;-1.08;69.92;95534.53;6300439;22;20183;-60
2022/03/05 02:04:28;;;;;;;18.65;15.30;;;;;;;-1.06;70.70;95530.13;6300333;22;20003;-60
2022/03/05 02:06:53;;;;;;;19.85;14.70;;;;;;;-0.99;71.55;95530.66;6300394;22;20450;-60
2022/03/05 02:09:19;;;;;;;16.60;13.25;;;;;;;-0.80;71.45;95532.31;6300599;22;20011;-60
2022/03/05 02:11:45;;;;;;;19.10;13.15;;;;;;;-0.86;72.25;95533.47;6300471;22;20342;-60
2022/03/05 02:14:10;;;;;;;17.92;13.55;;;;;;;-0.83;71.99;95537.63;6300489;22;20023;-60
2022/03/05 02:16:36;;;;;;;18.95;12.93;;;;;;;-0.86;72.16;95530.91;6300776;22;20063;-60
2022/03/05 02:19:03;;;;;;;15.93;12.68;;;;;;;-0.94;72.95;95531.28;6300388;22;20443;-60
2022/03/05 02:21:29;;;;;;;20.63;13.85;;;;;;;-0.91;72.22;95528.53;6300650;22;20011;-60
2022/03/05 02:23:54;;;;;;;22.95;14.90;;;;;;;-0.82;69.99;95535.00;6300606;22;20025;-60
2022/03/05 02:26:22;;;;;;;21.10;14.80;;;;;;;-0.96;70.85;95538.25;6300268;22;20007;-60
2022/03/05 02:28:48;;;;;;;21.33;15.23;;;;;;;-1.01;70.96;95533.31;6300646;22;20079;-60
2022/03/05 02:31:13;;;;;;;23.05;15.80;;;;;;;-1.08;71.75;95531.09;6300442;22;20030;-60
2022/03/05 02:33:40;;;;;;;21.48;15.95;;;;;;;-1.06;71.34;95524.94;6300344;22;20114;-60
2022/03/05 02:36:05;;;;;;;24.38;16.02;;;;;;;-1.14;72.01;95531.41;6300456;22;20439;-60
2022/03/05 02:38:31;;;;;;;23.88;16.98;;;;;;;-1.18;71.16;95530.69;6300433;22;19999;-60
2022/03/05 02:40:56;;;;;;;23.02;15.93;;;;;;;-1.26;72.31;95525.91;6300245;22;20443;-60
2022/03/05 02:43:22;;;;;;;19.00;14.45;;;;;;;-1.21;71.89;95523.97;6300194;22;20003;-60
2022/03/05 02:45:49;;;;;;;20.30;14.98;;;;;;;-1.19;71.43;95526.44;6300693;22;20346;-60
2022/03/05 02:48:16;;;;;;;21.98;15.18;;;;;;;-1.20;71.97;95528.22;6300268;22;20014;-60
2022/03/05 02:50:43;;;;;;;25.60;15.00;;;;;;;-1.23;72.53;95518.00;6299884;22;19999;-60
2022/03/05 02:53:09;;;;;;;24.88;15.70;;;;;;;-1.27;73.16;95531.16;6300358;22;20048;-60
2022/03/05 02:55:34;;;;;;;19.45;14.57;;;;;;;-1.32;73.00;95526.19;6300329;22;19999;-61
2022/03/05 02:58:00;;;;;;;19.42;14.80;;;;;;;-1.37;74.14;95530.75;6299970;22;20010;-60
2022/03/05 03:00:26;;;;;;;21.02;15.35;;;;;;;-1.45;73.73;95526.78;6299622;22;20007;-59
2022/03/05 03:02:51;;;;;;;20.77;14.77;;;;;;;-1.46;73.88;95522.53;6300002;22;20454;-61
2022/03/05 03:05:17;;;;;;;23.17;14.90;;;;;;;-1.54;74.45;95518.66;6300094;22;20008;-60
2022/03/05 03:07:44;;;;;;;22.58;15.48;;;;;;;-1.56;75.03;95520.44;6300402;22;20051;-60
2022/03/05 03:10:11;;;;;;;20.65;15.27;;;;;;;-1.51;73.93;95524.50;6300191;22;20018;-60
2022/03/05 03:12:38;;;;;;;20.30;13.90;;;;;;;-1.50;74.60;95523.56;6300025;22;20051;-60
2022/03/05 03:15:05;;;;;;;18.83;14.07;;;;;;;-1.58;74.27;95516.19;6300248;22;20312;-60
2022/03/05 03:17:42;;;;;;;17.98;14.20;;;;;;;-1.62;75.17;95519.00;6300096;22;20000;-60
2022/03/05 03:20:09;;;;;;;22.10;14.48;;;;;;;-1.58;74.15;95517.94;6299568;22;20098;-60
2022/03/05 03:22:34;;;;;;;18.67;13.52;;;;;;;-1.58;74.20;95517.94;6300012;22;20004;-60
2022/03/05 03:25:00;;;;;;;17.55;13.18;;;;;;;-1.62;73.83;95519.00;6300067;22;20007;-60
2022/03/05 03:27:25;;;;;;;16.95;12.85;;;;;;;-1.62;73.69;95519.81;6300209;22;20037;-60
2022/03/05 03:29:51;;;;;;;18.77;13.43;;;;;;;-1.64;73.23;95519.06;6300058;22;20026;-60
2022/03/05 03:32:16;;;;;;;21.73;15.20;;;;;;;-1.73;74.28;95504.84;6300063;22;20048;-60
2022/03/05 03:34:41;;;;;;;17.77;14.05;;;;;;;-1.81;74.93;95512.13;6300044;22;20350;-60
2022/03/05 03:37:07;;;;;;;19.50;13.63;;;;;;;-1.83;74.06;95519.09;6299951;22;20003;-60
2022/03/05 03:39:32;;;;;;;26.90;15.38;;;;;;;-1.74;73.83;95518.66;6299814;22;20015;-60
2022/03/05 03:41:57;;;;;;;24.08;15.40;;;;;;;-1.69;72.90;95515.03;6300095;22;20031;-60
2022/03/05 03:44:23;;;;;;;29.15;16.45;;;;;;;-1.66;73.66;95507.13;6300308;22;20087;-60
2022/03/05 03:46:48;;;;;;;26.05;17.45;;;;;;;-1.67;73.36;95508.03;6299712;22;20051;-60
2022/03/05 03:49:14;;;;;;;28.58;18.15;;;;;;;-1.81;73.78;95517.28;6300010;22;20083;-60
2022/03/05 03:51:39;;;;;;;28.65;16.92;;;;;;;-1.82;73.67;95518.19;6300179;22;20078;-60
2022/03/05 03:54:04;;;;;;;25.45;15.75;;;;;;;-1.80;73.04;95506.03;6299715;22;20082;-60
2022/03/05 03:56:30;;;;;;;22.60;15.52;;;;;;;-1.80;73.80;95511.19;6299803;22;20010;-60
2022/03/05 03:58:55;;;;;;;26.13;15.77;;;;;;;-1.83;73.57;95516.50;6299912;22;20018;-60
2022/03/05 04:01:20;;;;;;;22.33;15.50;;;;;;;-1.83;74.21;95513.94;6272238;22;20011;-60
2022/03/05 04:03:46;;;;;;;20.13;13.90;;;;;;;-1.90;74.04;95517.69;6299848;22;20007;-60
2022/03/05 04:06:11;;;;;;;21.90;14.93;;;;;;;-1.96;73.95;95512.81;6299787;22;20442;-60
2022/03/05 04:08:45;;;;;;;21.77;15.35;;;;;;;-1.95;73.81;95514.47;6299959;22;20007;-59
2022/03/05 04:11:18;;;;;;;19.65;14.52;;;;;;;-1.98;74.69;95515.47;6299388;22;20011;-60
2022/03/05 04:13:45;;;;;;;24.88;15.43;;;;;;;-1.97;75.38;95513.72;6300354;22;20491;-60
2022/03/05 04:16:11;;;;;;;22.25;16.42;;;;;;;-1.99;74.23;95513.81;6300788;22;20071;-60
2022/03/05 04:18:37;;;;;;;24.10;17.83;;;;;;;-2.01;74.23;95525.91;6300855;22;20078;-60
2022/03/05 04:21:04;;;;;;;22.90;15.63;;;;;;;-2.04;74.20;95519.16;6300851;22;20435;-60
2022/03/05 04:23:30;;;;;;;25.65;17.92;;;;;;;-2.10;74.93;95524.59;6300138;22;20013;-59
2022/03/05 04:25:55;;;;;;;26.50;16.67;;;;;;;-2.16;75.04;95520.56;6301118;22;20399;-60
2022/03/05 04:28:20;;;;;;;18.48;15.35;;;;;;;-2.18;75.18;95526.66;6301376;22;20010;-60
2022/03/05 04:30:46;;;;;;;22.65;14.02;;;;;;;-2.17;75.15;95524.03;6300992;22;20037;-60
2022/03/05 04:33:11;;;;;;;16.13;13.05;;;;;;;-2.20;76.08;95531.06;6301177;22;20010;-60
2022/03/05 04:35:37;;;;;;;18.80;13.55;;;;;;;-2.23;76.45;95526.03;6301295;22;20003;-60
2022/03/05 04:38:03;;;;;;;13.90;12.18;;;;;;;-2.26;75.47;95533.91;6300991;22;20035;-60
2022/03/05 04:40:29;;;;;;;17.58;13.00;;;;;;;-2.27;75.35;95534.84;6300909;22;20027;-60
2022/03/05 04:42:55;;;;;;;20.00;14.05;;;;;;;-2.28;75.98;95536.56;6301137;22;20031;-60
2022/03/05 04:45:20;;;;;;;21.05;14.93;;;;;;;-2.31;76.83;95529.81;6301326;22;20006;-60
2022/03/05 04:47:45;;;;;;;19.58;15.05;;;;;;;-2.29;76.15;95542.63;6300863;22;20113;-60
2022/03/05 04:50:11;;;;;;;20.50;14.10;;;;;;;-2.31;76.48;95539.28;6300833;22;20023;-60
2022/03/05 04:52:37;;;;;;;21.60;14.45;;;;;;;-2.28;75.69;95552.03;6301424;22;20034;-60
2022/03/05 04:55:04;;;;;;;19.10;15.48;;;;;;;-2.28;75.33;95551.22;6300843;22;20003;-60
2022/03/05 04:57:30;;;;;;;18.77;13.93;;;;;;;-2.35;75.30;95548.06;6301006;22;20011;-60
2022/03/05 04:59:55;;;;;;;20.23;13.07;;;;;;;-2.39;75.40;95551.69;6300820;22;20007;-60
2022/03/05 05:02:21;;;;;;;18.98;14.02;;;;;;;-2.43;76.14;95555.25;6300814;22;20006;-60
2022/03/05 05:04:46;;;;;;;18.67;14.57;;;;;;;-2.37;75.98;95558.44;6300629;22;20006;-60
2022/03/05 05:07:12;;;;;;;19.88;13.48;;;;;;;-2.39;76.17;95556.84;6301032;22;20434;-59
2022/03/05 05:09:38;;;;;;;21.65;15.25;;;;;;;-2.42;75.83;95556.97;6300670;22;20087;-60
2022/03/05 05:12:05;;;;;;;20.20;13.90;;;;;;;-2.44;76.58;95562.19;6301010;22;20018;-60
2022/03/05 05:14:30;;;;;;;17.65;13.65;;;;;;;-2.47;77.16;95559.72;6301081;22;20007;-60
2022/03/05 05:16:55;;;;;;;19.17;13.52;;;;;;;-2.51;77.60;95558.19;6301036;22;20354;-60
2022/03/05 05:19:27;;;;;;;17.60;13.18;;;;;;;-2.52;77.47;95553.94;6301089;22;20029;-59
2022/03/05 05:21:56;;;;;;;14.82;12.10;;;;;;;-2.52;75.82;95566.84;6301067;22;20007;-60
2022/03/05 05:24:26;;;;;;;17.10;14.73;;;;;;;-2.54;75.91;95553.16;6300083;22;20004;-60
2022/03/05 05:26:52;;;;;;;23.08;15.43;;;;;;;-2.52;76.12;95557.34;6301029;22;20051;-59
2022/03/05 05:29:18;;;;;;;26.30;16.27;;;;;;;-2.60;77.34;95554.25;6301009;22;20008;-59
2022/03/05 05:31:43;;;;;;;21.17;15.98;;;;;;;-2.57;77.43;95566.16;6300839;22;20132;-60
2022/03/05 05:34:09;;;;;;;20.08;15.20;;;;;;;-2.59;77.53;95566.25;6273799;22;20454;-60
2022/03/05 05:36:38;;;;;;;23.35;16.63;;;;;;;-2.59;77.01;95568.81;6300935;22;20051;-60
2022/03/05 05:39:04;;;;;;;20.40;14.77;;;;;;;-2.65;77.50;95571.69;6300545;22;20445;-60
2022/03/05 05:41:30;;;;;;;20.30;14.55;;;;;;;-2.67;76.37;95564.00;6300862;22;20011;-60
2022/03/05 05:43:55;;;;;;;24.65;15.45;;;;;;;-2.73;76.39;95595.19;6301087;22;20014;-60
2022/03/05 05:46:20;;;;;;;19.92;14.90;;;;;;;-2.58;76.46;95573.09;6300797;22;19999;-60
2022/03/05 05:48:46;;;;;;;23.20;17.92;;;;;;;-2.66;76.34;95581.13;6300736;22;20000;-60
2022/03/05 05:51:11;;;;;;;22.35;16.80;;;;;;;-2.66;77.92;95594.03;6301084;22;19999;-60
2022/03/05 05:53:36;;;;;;;22.17;17.33;;;;;;;-2.44;75.38;95590.53;6300876;22;20011;-60
2022/03/05 05:56:02;;;;;;;20.23;17.15;;;;;;;-2.57;76.33;95605.69;6300758;22;19999;-60
2022/03/05 05:58:27;;;;;;;22.50;16.52;;;;;;;-2.64;76.29;95599.13;6301181;22;20082;-60
2022/03/05 06:00:53;;;;;;;20.67;15.93;;;;;;;-2.55;76.11;95597.88;6300744;22;20014;-60
2022/03/05 06:03:18;;;;;;;26.60;17.08;;;;;;;-2.65;76.86;95598.28;6300601;22;20013;-60
2022/03/05 06:05:43;;;;;;;20.98;16.10;;;;;;;-2.70;77.00;95605.38;6301052;22;20458;-60
2022/03/05 06:08:09;;;;;;;21.27;15.60;;;;;;;-2.81;77.65;95598.06;6300405;22;20346;-59
2022/03/05 06:10:34;;;;;;;14.82;13.27;;;;;;;-2.76;76.84;95600.47;6300679;22;20019;-60
2022/03/05 06:13:00;;;;;;;17.75;13.23;;;;;;;-2.78;77.27;95602.25;6300711;22;20486;-60
2022/03/05 06:15:25;;;;;;;15.88;13.02;;;;;;;-2.75;76.08;95604.72;6300923;22;20018;-60
2022/03/05 06:17:50;;;;;;;16.25;13.45;;;;;;;-2.76;75.79;95615.94;6300766;22;20014;-60
2022/03/05 06:20:16;;;;;;;19.40;13.88;;;;;;;-2.68;75.49;95606.13;6273457;22;20007;-60
2022/03/05 06:22:42;;;;;;;15.95;13.07;;;;;;;-2.60;76.06;95606.66;6300915;22;20003;-60
2022/03/05 06:25:08;;;;;;;17.85;14.55;;;;;;;-2.59;76.01;95612.66;6300857;22;20021;-60
2022/03/05 06:27:34;;;;;;;18.85;13.30;;;;;;;-2.69;77.25;95619.94;6301014;22;20007;-60
2022/03/05 06:29:59;;;;;;;19.25;14.20;;;;;;;-2.77;77.74;95619.38;6301082;22;20090;-59
2022/03/05 06:32:25;;;;;;;18.95;13.40;;;;;;;-2.73;77.83;95620.97;6300563;22;20027;-60
2022/03/05 06:34:54;;;;;;;18.02;13.65;;;;;;;-2.76;77.01;95621.91;6273132;22;20043;-60
2022/03/05 06:37:20;;;;;;;15.07;13.27;;;;;;;-2.72;77.17;95621.78;6300326;22;20021;-60
2022/03/05 06:39:45;;;;;;;18.77;14.63;;;;;;;-2.73;76.56;95620.97;6300999;22;20003;-60
2022/03/05 06:42:11;;;;;;;22.05;18.60;;;;;;;-2.72;77.12;95625.22;6300243;22;20566;-60
2022/03/05 06:44:36;;;;;;;22.77;16.15;;;;;;;-2.69;78.03;95624.22;6300302;22;20048;-60
2022/03/05 06:47:03;;;;;;;19.38;15.25;;;;;;;-2.76;77.59;95628.81;6299981;22;20008;-60
2022/03/05 06:49:28;;;;;;;20.92;16.73;;;;;;;-2.74;79.24;95624.44;6273186;22;20019;-60
2022/03/05 06:51:53;;;;;;;19.95;16.17;;;;;;;-2.74;78.19;95622.69;6300234;22;20324;-61
2022/03/05 06:54:19;;;;;;;17.70;14.50;;;;;;;-2.71;77.89;95626.03;6300864;22;20003;-59
2022/03/05 06:56:44;;;;;;;16.63;14.02;;;;;;;-2.69;78.44;95622.50;6300457;22;20008;-59
2022/03/05 06:59:10;;;;;;;18.77;13.65;;;;;;;-2.65;78.86;95628.38;6300790;22;20346;-60
2022/03/05 07:01:35;;;;;;;26.83;14.30;;;;;;;-2.66;79.65;95630.09;6299524;22;20088;-60
2022/03/05 07:04:01;;;;;;;20.17;14.07;;;;;;;-2.61;78.60;95627.34;6300323;22;20394;-60
2022/03/05 07:06:26;;;;;;;16.35;13.88;;;;;;;-2.53;78.82;95632.19;6300554;22;20078;-60
2022/03/05 07:08:51;;;;;;;18.70;15.60;;;;;;;-2.51;78.42;95630.38;6300032;22;20007;-60
2022/03/05 07:11:17;;;;;;;27.95;18.33;;;;;;;-2.47;78.37;95629.34;6300216;22;20007;-60
2022/03/05 07:13:42;;;;;;;24.67;18.02;;;;;;;-2.45;79.35;95630.94;6300131;22;20037;-60
2022/03/05 07:16:07;;;;;;;24.73;18.02;;;;;;;-2.41;78.98;95636.00;6300464;22;20011;-60
2022/03/05 07:18:33;;;;;;;29.80;17.45;;;;;;;-2.39;79.10;95632.44;6300572;22;20121;-60
2022/03/05 07:20:58;;;;;;;29.65;18.58;;;;;;;-2.36;79.74;95624.56;6300447;22;20015;-61
2022/03/05 07:23:24;;;;;;;22.45;18.10;;;;;;;-2.28;79.45;95628.59;6300464;22;20041;-61
2022/03/05 07:25:50;;;;;;;22.48;18.17;;;;;;;-2.29;79.06;95640.63;6300338;22;20331;-62
2022/03/05 07:28:15;;;;;;;24.38;17.63;;;;;;;-2.26;78.27;95634.50;6300540;22;20003;-63
2022/03/05 07:30:42;;;;;;;19.20;15.35;;;;;;;-2.20;78.19;95637.69;6300569;22;20003;-62
2022/03/05 07:33:08;;;;;;;23.02;17.45;;;;;;;-2.19;78.37;95638.50;6300575;22;20066;-61
2022/03/05 07:35:34;;;;;;;22.25;17.35;;;;;;;-2.24;79.10;95635.28;6297748;22;20027;-60
2022/03/05 07:37:59;;;;;;;28.02;18.13;;;;;;;-2.22;79.36;95643.78;6299987;22;20003;-60
2022/03/05 07:40:25;;;;;;;20.70;17.00;;;;;;;-2.16;78.85;95635.78;6269963;22;20020;-61
2022/03/05 07:42:50;;;;;;;23.10;16.63;;;;;;;-2.08;78.46;95638.88;6298342;22;20010;-61
2022/03/05 07:45:15;;;;;;;22.45;16.05;;;;;;;-2.00;79.45;95635.94;6298473;22;20407;-60
2022/03/05 07:47:41;;;;;;;19.48;16.38;;;;;;;-2.03;78.37;95634.34;6298010;22;20009;-60
2022/03/05 07:50:07;;;;;;;21.25;17.30;;;;;;;-2.11;80.74;95641.56;6296556;22;20007;-60
2022/03/05 07:52:32;;;;;;;26.88;18.42;;;;;;;-2.09;80.42;95652.69;6298645;22;20442;-61
2022/03/05 07:54:59;;;;;;;20.85;16.35;;;;;;;-2.03;79.64;95652.41;6271224;22;20086;-60
2022/03/05 07:57:24;;;;;;;22.38;16.88;;;;;;;-1.95;79.85;95649.50;6298274;22;20007;-60
2022/03/05 07:59:49;;;;;;;23.63;19.23;;;;;;;-1.87;80.06;95649.19;6295890;22;20111;-61
2022/03/05 08:02:17;;;;;;;19.35;17.35;;;;;;;-1.55;80.25;95641.75;6294681;22;20006;-61
2022/03/05 08:04:44;;;;;;;26.50;20.40;;;;;;;-0.74;77.68;95644.03;6296949;22;20004;-62
2022/03/05 08:07:10;;;;;;;32.92;22.88;;;;;;;0.12;76.05;95637.25;6297811;22;20003;-62
2022/03/05 08:09:36;;;;;;;33.03;26.42;;;;;;;0.87;71.91;95639.34;6297605;22;20015;-62
2022/03/05 08:12:04;;;;;;;21.17;18.08;;;;;;;1.23;68.17;95643.41;6297469;22;20074;-61
2022/03/05 08:14:30;;;;;;;17.85;15.95;;;;;;;1.64;67.27;95641.97;6298245;22;20003;-63
2022/03/05 08:16:55;;;;;;;15.93;14.23;;;;;;;2.07;66.48;95633.47;6268197;22;20007;-63
2022/03/05 08:19:21;;;;;;;15.55;13.88;;;;;;;2.60;64.08;95637.28;6299519;22;20039;-60
2022/03/05 08:21:46;;;;;;;16.48;13.40;;;;;;;3.00;60.66;95625.22;6271894;22;20011;-59
2022/03/05 08:24:12;;;;;;;14.57;12.18;;;;;;;3.15;59.73;95633.81;6299167;22;20067;-59
2022/03/05 08:26:37;;;;;;;14.88;12.18;;;;;;;3.40;54.42;95634.00;6297993;22;20034;-60
2022/03/05 08:29:03;;;;;;;14.23;12.75;;;;;;;3.50;56.93;95636.84;6298253;22;20027;-60
2022/03/05 08:31:31;;;;;;;13.35;12.05;;;;;;;3.71;55.64;95635.44;6298047;22;20015;-60
2022/03/05 08:33:58;;;;;;;16.30;13.35;;;;;;;3.81;52.31;95635.69;6269207;22;20350;-61
2022/03/05 08:36:24;;;;;;;13.23;11.73;;;;;;;4.05;53.22;95639.34;6297717;22;20050;-59
2022/03/05 08:38:49;;;;;;;14.38;12.88;;;;;;;4.62;52.63;95629.44;6297941;22;20003;-59
2022/03/05 08:41:14;;;;;;;16.95;13.77;;;;;;;4.86;52.14;95637.28;6297696;22;20003;-58
2022/03/05 08:43:42;;;;;;;14.07;11.10;;;;;;;5.18;48.28;95635.94;6297480;22;20004;-59
2022/03/05 08:46:08;;;;;;;16.63;11.30;;;;;;;5.47;47.50;95627.81;6298263;22;20142;-59
2022/03/05 08:48:33;;;;;;;12.85;10.70;;;;;;;5.33;46.09;95628.81;6298874;22;20385;-60
2022/03/05 08:50:58;;;;;;;12.75;10.95;;;;;;;5.50;47.47;95627.59;6298132;22;20490;-60
2022/03/05 08:53:25;;;;;;;13.77;11.65;;;;;;;5.38;46.68;95622.28;6297989;22;20000;-59
2022/03/05 08:55:50;;;;;;;16.38;12.07;;;;;;;5.61;46.61;95624.19;6295672;22;19995;-59
2022/03/05 08:58:16;;;;;;;14.15;11.05;;;;;;;5.69;45.10;95620.06;6299188;22;20071;-59
2022/03/05 09:00:41;;;;;;;17.73;12.23;;;;;;;5.48;46.27;95612.00;6300381;22;20054;-55
2022/03/05 09:03:06;;;;;;;13.65;12.25;;;;;;;5.52;44.72;95610.03;6301022;22;20003;-57
2022/03/05 09:05:32;;;;;;;13.80;12.00;;;;;;;5.36;44.38;95616.34;6301146;22;20010;-57
2022/03/05 09:07:57;;;;;;;12.93;11.48;;;;;;;5.46;45.76;95616.53;6301025;22;20035;-55
2022/03/05 09:10:23;;;;;;;14.60;12.02;;;;;;;5.56;45.52;95612.31;6301166;22;20103;-56
2022/03/05 09:12:48;;;;;;;22.60;13.65;;;;;;;5.61;43.09;95609.34;6300786;22;20056;-58
2022/03/05 09:15:13;;;;;;;13.55;11.95;;;;;;;5.57;42.51;95615.72;6300105;22;20016;-55
2022/03/05 09:17:39;;;;;;;18.83;12.93;;;;;;;5.61;43.48;95611.94;6300831;22;19999;-58
2022/03/05 09:20:05;;;;;;;29.10;20.98;;;;;;;5.65;42.04;95600.34;6300872;22;20007;-58
2022/03/05 09:22:31;;;;;;;16.73;14.02;;;;;;;5.82;43.83;95599.09;6300541;22;20003;-57
2022/03/05 09:24:56;;;;;;;14.82;12.57;;;;;;;6.14;42.68;95597.63;6299496;22;20023;-58
2022/03/05 09:27:21;;;;;;;15.10;12.52;;;;;;;6.44;40.03;95601.44;6300043;22;20007;-56
2022/03/05 09:29:47;;;;;;;17.73;13.30;;;;;;;6.83;40.35;95598.44;6300819;22;20023;-57
2022/03/05 09:32:12;;;;;;;14.73;11.85;;;;;;;6.90;40.65;95596.19;6300357;22;20006;-57
2022/03/05 09:34:38;;;;;;;16.58;13.48;;;;;;;6.90;39.89;95593.56;6299200;22;20010;-58
2022/03/05 09:37:03;;;;;;;14.73;13.05;;;;;;;6.95;38.87;95594.88;6298637;22;20003;-57
2022/03/05 09:39:29;;;;;;;16.00;13.15;;;;;;;7.15;39.52;95587.22;6300611;22;20004;-57
2022/03/05 09:41:54;;;;;;;17.95;12.45;;;;;;;7.27;38.64;95590.63;6299384;22;20059;-55
2022/03/05 09:44:19;;;;;;;14.95;12.30;;;;;;;7.36;37.81;95583.81;6298128;22;20082;-56
2022/03/05 09:46:46;;;;;;;14.63;13.13;;;;;;;7.66;38.38;95582.25;6298993;22;20431;-56
2022/03/05 09:49:12;;;;;;;20.75;14.05;;;;;;;7.80;36.52;95584.59;6300598;22;20013;-55
2022/03/05 09:51:37;;;;;;;16.88;13.85;;;;;;;8.19;36.92;95583.16;6301119;22;20035;-55
2022/03/05 09:54:03;;;;;;;16.33;14.68;;;;;;;8.62;36.75;95586.56;6300627;22;20003;-52
2022/03/05 09:56:29;;;;;;;21.58;15.70;;;;;;;8.88;35.36;95585.13;6300839;22;20339;-53
2022/03/05 09:58:55;;;;;;;20.70;15.13;;;;;;;8.89;35.45;95584.16;6299659;22;20010;-57
2022/03/05 10:01:20;;;;;;;18.27;16.40;;;;;;;9.26;34.76;95577.44;6299506;22;20137;-56
2022/03/05 10:03:51;;;;;;;16.17;13.95;;;;;;;9.60;33.78;95584.94;6300498;22;20006;-52
2022/03/05 10:06:26;;;;;;;17.73;15.82;;;;;;;9.90;32.83;95571.78;6300432;22;20066;-56
2022/03/05 10:08:51;;;;;;;16.45;14.20;;;;;;;9.79;33.16;95577.19;6297992;22;20007;-52
2022/03/05 10:11:18;;;;;;;16.10;14.40;;;;;;;10.41;31.90;95568.91;6299517;22;20044;-51
2022/03/05 10:13:44;;;;;;;27.25;16.80;;;;;;;10.61;31.52;95567.06;6300371;22;20491;-55
2022/03/05 10:16:33;;;;;;;16.85;14.50;;;;;;;10.96;29.69;95562.84;6272649;22;20004;-55
2022/03/05 10:19:14;;;;;;;13.73;12.43;;;;;;;11.00;28.96;95558.13;6299504;22;20090;-55
2022/03/05 10:22:04;;;;;;;15.35;13.85;;;;;;;10.83;29.20;95563.19;6299418;22;20003;-48
2022/03/05 10:24:36;;;;;;;17.27;13.23;;;;;;;10.51;29.91;95558.34;6299461;22;20000;-55
2022/03/05 10:27:03;;;;;;;13.55;11.95;;;;;;;10.50;30.77;95560.16;6298507;22;20000;-58
2022/03/05 10:29:34;;;;;;;13.45;12.07;;;;;;;10.13;29.57;95566.19;6299173;22;20004;-58
2022/03/05 10:32:06;;;;;;;14.35;12.52;;;;;;;10.18;30.69;95556.91;6295832;22;20011;-58
2022/03/05 10:34:50;;;;;;;14.10;12.70;;;;;;;10.37;29.08;95559.63;6298051;22;20011;-59
2022/03/05 10:37:17;;;;;;;15.05;11.55;;;;;;;10.78;29.32;95560.19;6298472;22;20336;-58
2022/03/05 10:39:42;;;;;;;14.52;11.85;;;;;;;10.83;28.91;95555.28;6300781;22;20446;-58
2022/03/05 10:42:21;;;;;;;12.85;11.60;;;;;;;10.87;28.15;95553.22;6297967;22;20004;-57
2022/03/05 10:45:00;;;;;;;14.05;12.73;;;;;;;11.59;28.76;95552.41;6298511;22;20003;-59
2022/03/05 10:47:26;;;;;;;16.98;12.13;;;;;;;11.85;28.48;95551.66;6297201;22;20015;-59
2022/03/05 10:49:51;;;;;;;13.95;12.50;;;;;;;12.32;28.04;95543.41;6298453;22;20003;-59
2022/03/05 10:52:17;;;;;;;13.70;12.30;;;;;;;12.14;26.89;95550.56;6271176;22;20021;-59
2022/03/05 10:54:44;;;;;;;14.23;12.88;;;;;;;12.50;28.01;95547.81;6298319;22;20039;-59
2022/03/05 10:57:17;;;;;;;15.63;11.90;;;;;;;13.03;26.24;95545.03;6300171;22;20038;-59
2022/03/05 10:59:48;;;;;;;14.23;12.35;;;;;;;12.47;27.27;95545.44;6300265;22;20055;-59
2022/03/05 11:02:16;;;;;;;13.90;12.50;;;;;;;12.64;25.74;95548.19;6298015;22;20537;-60
2022/03/05 11:04:45;;;;;;;13.38;11.98;;;;;;;12.84;27.08;95543.50;6299205;22;20447;-60
2022/03/05 11:07:12;;;;;;;13.43;12.02;;;;;;;13.22;25.00;95545.75;6299879;22;20003;-59
2022/03/05 11:09:39;;;;;;;12.95;11.65;;;;;;;12.94;24.52;95548.66;6298598;22;20840;-58
2022/03/05 11:12:09;;;;;;;12.90;11.70;;;;;;;13.13;24.54;95545.69;6298873;22;20015;-62
2022/03/05 11:14:38;;;;;;;12.77;11.52;;;;;;;14.01;24.24;95543.50;6297469;22;20014;-59